sensor_id;sensor_type;location;lat;lon;timestamp;temperature;humidity
12588;DHT22;6359;51.450;7.346;2022-12-18T00:14:31;-9.50;99.90
12588;DHT22;6359;51.450;7.346;2022-12-18T00:31:43;-9.20;99.90
12588;DHT22;6359;51.450;7.346;2022-12-18T00:34:11;-9.20;99.90
12588;DHT22;6359;51.450;7.346;2022-12-18T00:44:18;-8.80;99.90
12588;DHT22;6359;51.450;7.346;2022-12-18T00:46:47;-8.80;99.90
12588;DHT22;6359;51.450;7.346;2022-12-18T01:04:02;-8.80;99.90
12588;DHT22;6359;51.450;7.346;2022-12-18T01:21:16;-8.30;99.90
12588;DHT22;6359;51.450;7.346;2022-12-18T01:23:46;-8.20;99.90
12588;DHT22;6359;51.450;7.346;2022-12-18T01:26:15;-8.10;99.90
12588;DHT22;6359;51.450;7.346;2022-12-18T01:28:42;-8.10;99.90
12588;DHT22;6359;51.450;7.346;2022-12-18T01:31:16;-8.30;99.90
12588;DHT22;6359;51.450;7.346;2022-12-18T01:36:20;-8.20;99.90
12588;DHT22;6359;51.450;7.346;2022-12-18T01:41:15;-8.30;99.90
12588;DHT22;6359;51.450;7.346;2022-12-18T01:43:49;-8.30;99.90
12588;DHT22;6359;51.450;7.346;2022-12-18T01:46:17;-8.40;99.90
12588;DHT22;6359;51.450;7.346;2022-12-18T01:48:45;-8.50;99.90
12588;DHT22;6359;51.450;7.346;2022-12-18T01:53:43;-8.50;99.90
12588;DHT22;6359;51.450;7.346;2022-12-18T01:56:13;-8.60;99.90
12588;DHT22;6359;51.450;7.346;2022-12-18T01:58:50;-8.40;99.90
12588;DHT22;6359;51.450;7.346;2022-12-18T02:01:20;-8.40;99.90
12588;DHT22;6359;51.450;7.346;2022-12-18T02:06:19;-8.40;99.90
12588;DHT22;6359;51.450;7.346;2022-12-18T02:08:57;-8.40;99.90
12588;DHT22;6359;51.450;7.346;2022-12-18T02:11:35;-8.40;99.90
12588;DHT22;6359;51.450;7.346;2022-12-18T02:14:13;-8.50;99.90
12588;DHT22;6359;51.450;7.346;2022-12-18T02:16:46;-8.40;99.90
12588;DHT22;6359;51.450;7.346;2022-12-18T02:19:37;-8.50;99.90
12588;DHT22;6359;51.450;7.346;2022-12-18T02:22:14;-6.40;99.90
12588;DHT22;6359;51.450;7.346;2022-12-18T02:24:58;-8.60;99.90
12588;DHT22;6359;51.450;7.346;2022-12-18T02:27:28;-8.60;99.90
12588;DHT22;6359;51.450;7.346;2022-12-18T02:29:57;-8.60;99.90
12588;DHT22;6359;51.450;7.346;2022-12-18T02:32:30;-8.60;99.90
12588;DHT22;6359;51.450;7.346;2022-12-18T02:34:58;-8.50;99.90
12588;DHT22;6359;51.450;7.346;2022-12-18T02:37:27;-8.50;99.90
12588;DHT22;6359;51.450;7.346;2022-12-18T02:39:57;-8.40;99.90
12588;DHT22;6359;51.450;7.346;2022-12-18T02:42:28;-8.50;99.90
12588;DHT22;6359;51.450;7.346;2022-12-18T02:47:24;-8.10;99.90
12588;DHT22;6359;51.450;7.346;2022-12-18T02:49:59;-8.10;99.90
12588;DHT22;6359;51.450;7.346;2022-12-18T02:52:31;-8.00;99.90
12588;DHT22;6359;51.450;7.346;2022-12-18T02:55:12;-7.90;99.90
12588;DHT22;6359;51.450;7.346;2022-12-18T02:57:45;-7.60;99.90
12588;DHT22;6359;51.450;7.346;2022-12-18T03:00:17;-7.60;99.90
12588;DHT22;6359;51.450;7.346;2022-12-18T03:02:48;-7.60;99.90
12588;DHT22;6359;51.450;7.346;2022-12-18T03:05:21;-7.70;99.90
12588;DHT22;6359;51.450;7.346;2022-12-18T03:07:57;-7.60;99.90
12588;DHT22;6359;51.450;7.346;2022-12-18T03:10:27;-7.50;99.90
12588;DHT22;6359;51.450;7.346;2022-12-18T03:12:59;-7.40;99.90
12588;DHT22;6359;51.450;7.346;2022-12-18T03:15:30;-7.40;99.90
12588;DHT22;6359;51.450;7.346;2022-12-18T03:18:02;-7.30;99.90
12588;DHT22;6359;51.450;7.346;2022-12-18T03:20:33;-7.20;99.90
12588;DHT22;6359;51.450;7.346;2022-12-18T03:23:06;-7.20;99.90
12588;DHT22;6359;51.450;7.346;2022-12-18T03:25:35;-7.10;99.90
12588;DHT22;6359;51.450;7.346;2022-12-18T03:28:06;-7.10;99.90
12588;DHT22;6359;51.450;7.346;2022-12-18T03:30:37;-7.10;99.90
12588;DHT22;6359;51.450;7.346;2022-12-18T03:33:09;-7.10;99.90
12588;DHT22;6359;51.450;7.346;2022-12-18T03:35:40;-6.90;99.90
12588;DHT22;6359;51.450;7.346;2022-12-18T03:40:45;-6.40;99.90
12588;DHT22;6359;51.450;7.346;2022-12-18T03:43:24;-5.00;99.90
12588;DHT22;6359;51.450;7.346;2022-12-18T03:45:55;-4.30;99.90
12588;DHT22;6359;51.450;7.346;2022-12-18T03:48:29;-3.80;99.90
12588;DHT22;6359;51.450;7.346;2022-12-18T03:51:01;-3.60;99.90
12588;DHT22;6359;51.450;7.346;2022-12-18T03:53:37;-3.30;99.90
12588;DHT22;6359;51.450;7.346;2022-12-18T03:56:06;-2.70;99.90
12588;DHT22;6359;51.450;7.346;2022-12-18T03:58:37;-2.60;99.90
12588;DHT22;6359;51.450;7.346;2022-12-18T04:01:12;-2.60;99.90
12588;DHT22;6359;51.450;7.346;2022-12-18T04:03:41;-2.70;99.90
12588;DHT22;6359;51.450;7.346;2022-12-18T04:06:10;-2.90;99.90
12588;DHT22;6359;51.450;7.346;2022-12-18T04:13:36;-3.60;99.90
12588;DHT22;6359;51.450;7.346;2022-12-18T04:30:52;-5.20;99.90
12588;DHT22;6359;51.450;7.346;2022-12-18T04:48:04;-5.90;99.90
12588;DHT22;6359;51.450;7.346;2022-12-18T05:05:17;-6.80;99.90
12588;DHT22;6359;51.450;7.346;2022-12-18T05:22:45;-7.50;99.90
12588;DHT22;6359;51.450;7.346;2022-12-18T05:30:07;-7.50;99.90
12588;DHT22;6359;51.450;7.346;2022-12-18T05:39:58;-7.40;99.90
12588;DHT22;6359;51.450;7.346;2022-12-18T05:57:09;-7.60;99.90
12588;DHT22;6359;51.450;7.346;2022-12-18T06:14:22;-7.50;99.90
12588;DHT22;6359;51.450;7.346;2022-12-18T06:16:50;-7.60;99.90
12588;DHT22;6359;51.450;7.346;2022-12-18T06:31:36;-7.80;99.90
12588;DHT22;6359;51.450;7.346;2022-12-18T06:48:50;-8.20;99.90
12588;DHT22;6359;51.450;7.346;2022-12-18T06:51:18;-8.20;99.90
12588;DHT22;6359;51.450;7.346;2022-12-18T07:01:09;-8.20;99.90
12588;DHT22;6359;51.450;7.346;2022-12-18T07:06:05;-8.30;99.90
12588;DHT22;6359;51.450;7.346;2022-12-18T07:11:03;-8.40;99.90
12588;DHT22;6359;51.450;7.346;2022-12-18T07:16:06;-8.50;99.90
12588;DHT22;6359;51.450;7.346;2022-12-18T07:21:05;-8.60;99.90
12588;DHT22;6359;51.450;7.346;2022-12-18T07:26:01;-8.60;99.90
12588;DHT22;6359;51.450;7.346;2022-12-18T07:38:21;-8.40;99.90
12588;DHT22;6359;51.450;7.346;2022-12-18T07:55:33;-7.60;99.90
12588;DHT22;6359;51.450;7.346;2022-12-18T07:58:02;-7.30;99.90
12588;DHT22;6359;51.450;7.346;2022-12-18T08:12:49;-6.40;99.90
12588;DHT22;6359;51.450;7.346;2022-12-18T08:30:05;-4.60;99.90
12588;DHT22;6359;51.450;7.346;2022-12-18T08:45:08;-1.90;99.90
12588;DHT22;6359;51.450;7.346;2022-12-18T09:02:22;0.60;99.90
12588;DHT22;6359;51.450;7.346;2022-12-18T09:12:11;1.90;99.90
12588;DHT22;6359;51.450;7.346;2022-12-18T09:14:37;2.20;99.90
12588;DHT22;6359;51.450;7.346;2022-12-18T09:17:04;2.00;99.90
12588;DHT22;6359;51.450;7.346;2022-12-18T09:19:33;2.20;99.90
12588;DHT22;6359;51.450;7.346;2022-12-18T09:22:00;2.30;99.90
12588;DHT22;6359;51.450;7.346;2022-12-18T09:24:27;2.30;99.90
12588;DHT22;6359;51.450;7.346;2022-12-18T09:29:21;1.80;99.90
12588;DHT22;6359;51.450;7.346;2022-12-18T09:31:48;1.80;99.90
12588;DHT22;6359;51.450;7.346;2022-12-18T09:34:16;2.80;99.90
12588;DHT22;6359;51.450;7.346;2022-12-18T09:36:44;2.30;99.90
12588;DHT22;6359;51.450;7.346;2022-12-18T09:41:45;3.50;99.90
12588;DHT22;6359;51.450;7.346;2022-12-18T09:44:18;5.20;99.90
12588;DHT22;6359;51.450;7.346;2022-12-18T09:46:49;6.20;99.90
12588;DHT22;6359;51.450;7.346;2022-12-18T09:49:19;6.20;99.90
12588;DHT22;6359;51.450;7.346;2022-12-18T09:51:52;6.50;99.90
12588;DHT22;6359;51.450;7.346;2022-12-18T09:54:22;6.50;99.90
12588;DHT22;6359;51.450;7.346;2022-12-18T09:56:50;8.80;99.90
12588;DHT22;6359;51.450;7.346;2022-12-18T09:59:24;6.40;99.90
12588;DHT22;6359;51.450;7.346;2022-12-18T10:06:52;5.50;99.90
12588;DHT22;6359;51.450;7.346;2022-12-18T10:09:28;5.30;99.90
12588;DHT22;6359;51.450;7.346;2022-12-18T10:12:04;5.20;99.90
12588;DHT22;6359;51.450;7.346;2022-12-18T10:14:39;5.20;99.90
12588;DHT22;6359;51.450;7.346;2022-12-18T10:17:14;5.10;99.90
12588;DHT22;6359;51.450;7.346;2022-12-18T10:19:49;5.10;99.90
12588;DHT22;6359;51.450;7.346;2022-12-18T10:22:26;4.90;99.90
12588;DHT22;6359;51.450;7.346;2022-12-18T10:25:01;5.10;99.90
12588;DHT22;6359;51.450;7.346;2022-12-18T10:27:30;5.40;99.90
12588;DHT22;6359;51.450;7.346;2022-12-18T10:29:57;5.30;99.90
12588;DHT22;6359;51.450;7.346;2022-12-18T10:32:26;5.50;99.90
12588;DHT22;6359;51.450;7.346;2022-12-18T10:34:56;5.40;99.90
12588;DHT22;6359;51.450;7.346;2022-12-18T10:37:27;5.30;99.90
12588;DHT22;6359;51.450;7.346;2022-12-18T10:40:12;5.00;99.90
12588;DHT22;6359;51.450;7.346;2022-12-18T10:45:11;5.30;99.90
12588;DHT22;6359;51.450;7.346;2022-12-18T10:47:43;5.40;99.90
12588;DHT22;6359;51.450;7.346;2022-12-18T10:50:19;5.30;99.90
12588;DHT22;6359;51.450;7.346;2022-12-18T10:52:55;5.50;99.90
12588;DHT22;6359;51.450;7.346;2022-12-18T10:57:49;5.50;99.90
12588;DHT22;6359;51.450;7.346;2022-12-18T11:00:24;5.60;99.90
12588;DHT22;6359;51.450;7.346;2022-12-18T11:02:52;5.90;99.90
12588;DHT22;6359;51.450;7.346;2022-12-18T11:05:27;6.00;99.90
12588;DHT22;6359;51.450;7.346;2022-12-18T11:07:57;7.50;99.90
12588;DHT22;6359;51.450;7.346;2022-12-18T11:10:28;4.80;99.90
12588;DHT22;6359;51.450;7.346;2022-12-18T11:13:14;4.80;99.90
12588;DHT22;6359;51.450;7.346;2022-12-18T11:15:43;4.60;99.90
12588;DHT22;6359;51.450;7.346;2022-12-18T11:18:17;4.30;99.90
12588;DHT22;6359;51.450;7.346;2022-12-18T11:20:51;4.70;99.90
12588;DHT22;6359;51.450;7.346;2022-12-18T11:23:21;4.90;99.90
12588;DHT22;6359;51.450;7.346;2022-12-18T11:25:53;4.80;99.90
12588;DHT22;6359;51.450;7.346;2022-12-18T11:28:46;4.90;99.90
12588;DHT22;6359;51.450;7.346;2022-12-18T11:31:22;5.00;99.90
12588;DHT22;6359;51.450;7.346;2022-12-18T11:34:03;5.00;99.90
12588;DHT22;6359;51.450;7.346;2022-12-18T11:36:34;5.50;99.90
12588;DHT22;6359;51.450;7.346;2022-12-18T11:39:12;5.40;99.90
12588;DHT22;6359;51.450;7.346;2022-12-18T11:41:48;5.30;99.90
12588;DHT22;6359;51.450;7.346;2022-12-18T11:44:41;5.10;99.90
12588;DHT22;6359;51.450;7.346;2022-12-18T11:47:15;5.00;99.90
12588;DHT22;6359;51.450;7.346;2022-12-18T11:49:49;4.90;99.90
12588;DHT22;6359;51.450;7.346;2022-12-18T11:52:18;5.10;99.90
12588;DHT22;6359;51.450;7.346;2022-12-18T11:54:53;4.90;99.90
12588;DHT22;6359;51.450;7.346;2022-12-18T11:57:31;4.60;99.90
12588;DHT22;6359;51.450;7.346;2022-12-18T12:00:07;4.70;99.90
12588;DHT22;6359;51.450;7.346;2022-12-18T12:02:48;4.90;99.90
12588;DHT22;6359;51.450;7.346;2022-12-18T12:05:33;4.90;99.90
12588;DHT22;6359;51.450;7.346;2022-12-18T12:08:13;5.00;99.90
12588;DHT22;6359;51.450;7.346;2022-12-18T12:10:51;4.90;99.90
12588;DHT22;6359;51.450;7.346;2022-12-18T12:13:29;4.90;99.90
12588;DHT22;6359;51.450;7.346;2022-12-18T12:16:08;4.70;99.90
12588;DHT22;6359;51.450;7.346;2022-12-18T12:18:47;4.70;99.90
12588;DHT22;6359;51.450;7.346;2022-12-18T12:21:22;4.80;99.90
12588;DHT22;6359;51.450;7.346;2022-12-18T12:23:53;4.80;99.90
12588;DHT22;6359;51.450;7.346;2022-12-18T12:26:29;4.90;99.90
12588;DHT22;6359;51.450;7.346;2022-12-18T12:29:06;4.90;99.90
12588;DHT22;6359;51.450;7.346;2022-12-18T12:31:49;5.20;99.90
12588;DHT22;6359;51.450;7.346;2022-12-18T12:34:22;4.70;99.90
12588;DHT22;6359;51.450;7.346;2022-12-18T12:37:00;4.30;99.90
12588;DHT22;6359;51.450;7.346;2022-12-18T12:39:32;4.50;99.90
12588;DHT22;6359;51.450;7.346;2022-12-18T12:42:02;4.20;99.90
12588;DHT22;6359;51.450;7.346;2022-12-18T12:44:51;4.50;99.90
12588;DHT22;6359;51.450;7.346;2022-12-18T12:47:25;4.30;99.90
12588;DHT22;6359;51.450;7.346;2022-12-18T12:49:54;4.50;99.90
12588;DHT22;6359;51.450;7.346;2022-12-18T12:52:27;4.40;99.90
12588;DHT22;6359;51.450;7.346;2022-12-18T12:54:56;4.40;99.90
12588;DHT22;6359;51.450;7.346;2022-12-18T12:57:31;4.30;99.90
12588;DHT22;6359;51.450;7.346;2022-12-18T13:00:04;4.40;99.90
12588;DHT22;6359;51.450;7.346;2022-12-18T13:02:35;4.10;99.90
12588;DHT22;6359;51.450;7.346;2022-12-18T13:05:10;4.30;99.90
12588;DHT22;6359;51.450;7.346;2022-12-18T13:07:45;4.40;99.90
12588;DHT22;6359;51.450;7.346;2022-12-18T13:10:24;4.20;99.90
12588;DHT22;6359;51.450;7.346;2022-12-18T13:13:00;4.20;99.90
12588;DHT22;6359;51.450;7.346;2022-12-18T13:15:31;4.30;99.90
12588;DHT22;6359;51.450;7.346;2022-12-18T13:18:11;4.40;99.90
12588;DHT22;6359;51.450;7.346;2022-12-18T13:20:40;4.40;99.90
12588;DHT22;6359;51.450;7.346;2022-12-18T13:23:29;4.50;99.90
12588;DHT22;6359;51.450;7.346;2022-12-18T13:25:57;4.70;99.90
12588;DHT22;6359;51.450;7.346;2022-12-18T13:28:50;4.40;99.90
12588;DHT22;6359;51.450;7.346;2022-12-18T13:43:33;4.10;99.90
12588;DHT22;6359;51.450;7.346;2022-12-18T13:46:19;3.90;99.90
12588;DHT22;6359;51.450;7.346;2022-12-18T13:49:00;4.00;99.90
12588;DHT22;6359;51.450;7.346;2022-12-18T13:51:30;3.90;99.90
12588;DHT22;6359;51.450;7.346;2022-12-18T13:53:59;3.80;99.90
12588;DHT22;6359;51.450;7.346;2022-12-18T13:56:29;3.60;99.90
12588;DHT22;6359;51.450;7.346;2022-12-18T13:59:16;3.70;99.90
12588;DHT22;6359;51.450;7.346;2022-12-18T14:01:46;3.60;99.90
12588;DHT22;6359;51.450;7.346;2022-12-18T14:04:23;3.50;99.90
12588;DHT22;6359;51.450;7.346;2022-12-18T14:06:58;3.20;99.90
12588;DHT22;6359;51.450;7.346;2022-12-18T14:09:29;3.40;99.90
12588;DHT22;6359;51.450;7.346;2022-12-18T14:11:57;3.40;99.90
12588;DHT22;6359;51.450;7.346;2022-12-18T14:14:41;3.40;99.90
12588;DHT22;6359;51.450;7.346;2022-12-18T14:17:10;3.40;99.90
12588;DHT22;6359;51.450;7.346;2022-12-18T14:19:42;3.40;99.90
12588;DHT22;6359;51.450;7.346;2022-12-18T14:22:17;3.20;99.90
12588;DHT22;6359;51.450;7.346;2022-12-18T14:27:19;3.20;99.90
12588;DHT22;6359;51.450;7.346;2022-12-18T14:29:46;3.10;99.90
12588;DHT22;6359;51.450;7.346;2022-12-18T14:32:16;4.10;99.90
12588;DHT22;6359;51.450;7.346;2022-12-18T14:34:44;3.10;99.90
12588;DHT22;6359;51.450;7.346;2022-12-18T14:37:12;2.90;99.90
12588;DHT22;6359;51.450;7.346;2022-12-18T14:42:10;2.90;99.90
12588;DHT22;6359;51.450;7.346;2022-12-18T14:47:04;3.20;99.90
12588;DHT22;6359;51.450;7.346;2022-12-18T14:49:34;2.90;99.90
12588;DHT22;6359;51.450;7.346;2022-12-18T14:52:03;2.90;99.90
12588;DHT22;6359;51.450;7.346;2022-12-18T14:54:32;2.90;99.90
12588;DHT22;6359;51.450;7.346;2022-12-18T14:57:02;3.10;99.90
12588;DHT22;6359;51.450;7.346;2022-12-18T14:59:30;3.00;99.90
12588;DHT22;6359;51.450;7.346;2022-12-18T15:02:01;3.00;99.90
12588;DHT22;6359;51.450;7.346;2022-12-18T15:04:36;2.90;99.90
12588;DHT22;6359;51.450;7.346;2022-12-18T15:07:09;3.10;99.90
12588;DHT22;6359;51.450;7.346;2022-12-18T15:09:39;2.80;99.90
12588;DHT22;6359;51.450;7.346;2022-12-18T15:12:24;2.70;99.90
12588;DHT22;6359;51.450;7.346;2022-12-18T15:14:52;2.70;99.90
12588;DHT22;6359;51.450;7.346;2022-12-18T15:17:21;2.60;99.90
12588;DHT22;6359;51.450;7.346;2022-12-18T15:19:53;2.50;99.90
12588;DHT22;6359;51.450;7.346;2022-12-18T15:22:26;2.40;99.90
12588;DHT22;6359;51.450;7.346;2022-12-18T15:24:54;2.50;99.90
12588;DHT22;6359;51.450;7.346;2022-12-18T15:27:28;2.40;99.90
12588;DHT22;6359;51.450;7.346;2022-12-18T15:32:45;2.50;99.90
12588;DHT22;6359;51.450;7.346;2022-12-18T15:35:17;2.50;99.90
12588;DHT22;6359;51.450;7.346;2022-12-18T15:40:13;2.30;99.90
12588;DHT22;6359;51.450;7.346;2022-12-18T15:42:41;2.30;99.90
12588;DHT22;6359;51.450;7.346;2022-12-18T15:45:26;2.30;99.90
12588;DHT22;6359;51.450;7.346;2022-12-18T15:50:22;2.20;99.90
12588;DHT22;6359;51.450;7.346;2022-12-18T15:52:51;2.20;99.90
12588;DHT22;6359;51.450;7.346;2022-12-18T15:55:20;2.20;99.90
12588;DHT22;6359;51.450;7.346;2022-12-18T16:05:28;3.40;99.90
12588;DHT22;6359;51.450;7.346;2022-12-18T16:07:55;1.80;99.90
12588;DHT22;6359;51.450;7.346;2022-12-18T16:10:22;2.10;99.90
12588;DHT22;6359;51.450;7.346;2022-12-18T16:15:18;-0.60;99.90
12588;DHT22;6359;51.450;7.346;2022-12-18T16:17:47;1.80;99.90
12588;DHT22;6359;51.450;7.346;2022-12-18T16:20:15;1.70;99.90
12588;DHT22;6359;51.450;7.346;2022-12-18T16:22:45;1.80;99.90
12588;DHT22;6359;51.450;7.346;2022-12-18T16:25:17;1.80;99.90
12588;DHT22;6359;51.450;7.346;2022-12-18T16:30:13;1.90;99.90
12588;DHT22;6359;51.450;7.346;2022-12-18T16:32:40;1.90;99.90
12588;DHT22;6359;51.450;7.346;2022-12-18T16:35:10;1.80;99.90
12588;DHT22;6359;51.450;7.346;2022-12-18T16:37:37;1.70;99.90
12588;DHT22;6359;51.450;7.346;2022-12-18T16:40:06;1.80;99.90
12588;DHT22;6359;51.450;7.346;2022-12-18T16:42:34;1.60;99.90
12588;DHT22;6359;51.450;7.346;2022-12-18T16:45:02;1.90;99.90
12588;DHT22;6359;51.450;7.346;2022-12-18T16:47:29;1.80;99.90
12588;DHT22;6359;51.450;7.346;2022-12-18T16:49:56;1.50;99.90
12588;DHT22;6359;51.450;7.346;2022-12-18T16:54:50;1.60;99.90
12588;DHT22;6359;51.450;7.346;2022-12-18T16:57:20;1.60;99.90
12588;DHT22;6359;51.450;7.346;2022-12-18T17:02:16;1.80;99.90
12588;DHT22;6359;51.450;7.346;2022-12-18T17:04:44;-0.50;99.90
12588;DHT22;6359;51.450;7.346;2022-12-18T17:07:11;1.70;99.90
12588;DHT22;6359;51.450;7.346;2022-12-18T17:12:06;1.70;99.90
12588;DHT22;6359;51.450;7.346;2022-12-18T17:14:35;1.50;99.90
12588;DHT22;6359;51.450;7.346;2022-12-18T17:17:02;1.20;99.90
12588;DHT22;6359;51.450;7.346;2022-12-18T17:29:19;1.30;99.90
12588;DHT22;6359;51.450;7.346;2022-12-18T17:31:47;1.30;99.90
12588;DHT22;6359;51.450;7.346;2022-12-18T17:39:15;1.20;99.90
12588;DHT22;6359;51.450;7.346;2022-12-18T17:44:10;1.10;99.90
12588;DHT22;6359;51.450;7.346;2022-12-18T17:46:37;1.20;99.90
12588;DHT22;6359;51.450;7.346;2022-12-18T17:49:05;1.30;99.90
12588;DHT22;6359;51.450;7.346;2022-12-18T17:53:59;1.10;99.90
12588;DHT22;6359;51.450;7.346;2022-12-18T17:56:26;1.00;99.90
12588;DHT22;6359;51.450;7.346;2022-12-18T17:58:53;1.30;99.90
12588;DHT22;6359;51.450;7.346;2022-12-18T18:01:22;1.20;99.90
12588;DHT22;6359;51.450;7.346;2022-12-18T18:03:49;1.20;99.90
12588;DHT22;6359;51.450;7.346;2022-12-18T18:06:18;1.20;99.90
12588;DHT22;6359;51.450;7.346;2022-12-18T18:08:45;1.40;99.90
12588;DHT22;6359;51.450;7.346;2022-12-18T18:11:15;1.20;99.90
12588;DHT22;6359;51.450;7.346;2022-12-18T18:16:31;2.50;99.90
12588;DHT22;6359;51.450;7.346;2022-12-18T18:21:27;1.20;99.90
12588;DHT22;6359;51.450;7.346;2022-12-18T18:28:52;1.10;99.90
12588;DHT22;6359;51.450;7.346;2022-12-18T18:31:20;1.20;99.90
12588;DHT22;6359;51.450;7.346;2022-12-18T18:33:47;0.90;99.90
12588;DHT22;6359;51.450;7.346;2022-12-18T18:38:43;1.00;99.90
12588;DHT22;6359;51.450;7.346;2022-12-18T18:46:05;1.00;99.90
12588;DHT22;6359;51.450;7.346;2022-12-18T18:48:33;0.70;99.90
12588;DHT22;6359;51.450;7.346;2022-12-18T18:51:02;0.90;99.90
12588;DHT22;6359;51.450;7.346;2022-12-18T18:55:59;0.80;99.90
12588;DHT22;6359;51.450;7.346;2022-12-18T19:00:54;0.80;99.90
12588;DHT22;6359;51.450;7.346;2022-12-18T19:03:22;1.00;99.90
12588;DHT22;6359;51.450;7.346;2022-12-18T19:05:51;0.80;99.90
12588;DHT22;6359;51.450;7.346;2022-12-18T19:08:20;0.70;99.90
12588;DHT22;6359;51.450;7.346;2022-12-18T19:10:50;0.70;99.90
12588;DHT22;6359;51.450;7.346;2022-12-18T19:13:19;0.70;99.90
12588;DHT22;6359;51.450;7.346;2022-12-18T19:25:36;0.70;99.90
12588;DHT22;6359;51.450;7.346;2022-12-18T19:30:36;0.70;99.90
12588;DHT22;6359;51.450;7.346;2022-12-18T19:47:48;0.80;99.90
12588;DHT22;6359;51.450;7.346;2022-12-18T19:52:42;0.90;99.90
12588;DHT22;6359;51.450;7.346;2022-12-18T20:00:05;1.10;99.90
12588;DHT22;6359;51.450;7.346;2022-12-18T20:05:03;0.90;99.90
12588;DHT22;6359;51.450;7.346;2022-12-18T20:22:14;1.20;99.90
12588;DHT22;6359;51.450;7.346;2022-12-18T20:34:30;1.20;99.90
12588;DHT22;6359;51.450;7.346;2022-12-18T20:36:57;1.50;99.90
12588;DHT22;6359;51.450;7.346;2022-12-18T20:39:25;4.00;99.90
12588;DHT22;6359;51.450;7.346;2022-12-18T20:44:22;1.30;99.90
12588;DHT22;6359;51.450;7.346;2022-12-18T20:46:50;1.50;99.90
12588;DHT22;6359;51.450;7.346;2022-12-18T20:56:40;1.60;99.90
12588;DHT22;6359;51.450;7.346;2022-12-18T21:11:28;1.50;99.90
12588;DHT22;6359;51.450;7.346;2022-12-18T21:14:18;1.50;99.90
12588;DHT22;6359;51.450;7.346;2022-12-18T21:16:46;1.50;99.90
12588;DHT22;6359;51.450;7.346;2022-12-18T21:19:18;1.40;99.90
12588;DHT22;6359;51.450;7.346;2022-12-18T21:21:47;1.40;99.90
12588;DHT22;6359;51.450;7.346;2022-12-18T21:24:15;1.60;99.90
12588;DHT22;6359;51.450;7.346;2022-12-18T21:29:11;1.20;99.90
12588;DHT22;6359;51.450;7.346;2022-12-18T21:31:40;1.40;99.90
12588;DHT22;6359;51.450;7.346;2022-12-18T21:34:10;1.40;99.90
12588;DHT22;6359;51.450;7.346;2022-12-18T21:36:40;1.20;99.90
12588;DHT22;6359;51.450;7.346;2022-12-18T21:39:07;1.40;99.90
12588;DHT22;6359;51.450;7.346;2022-12-18T21:46:49;1.50;99.90
12588;DHT22;6359;51.450;7.346;2022-12-18T21:49:17;1.50;99.90
12588;DHT22;6359;51.450;7.346;2022-12-18T21:51:46;1.60;99.90
12588;DHT22;6359;51.450;7.346;2022-12-18T21:56:49;1.70;99.90
12588;DHT22;6359;51.450;7.346;2022-12-18T21:59:19;1.60;99.90
12588;DHT22;6359;51.450;7.346;2022-12-18T22:01:49;1.80;99.90
12588;DHT22;6359;51.450;7.346;2022-12-18T22:04:17;1.70;99.90
12588;DHT22;6359;51.450;7.346;2022-12-18T22:06:45;1.70;99.90
12588;DHT22;6359;51.450;7.346;2022-12-18T22:09:14;1.70;99.90
12588;DHT22;6359;51.450;7.346;2022-12-18T22:11:42;3.30;99.90
12588;DHT22;6359;51.450;7.346;2022-12-18T22:14:09;1.90;99.90
12588;DHT22;6359;51.450;7.346;2022-12-18T22:19:06;1.70;99.90
12588;DHT22;6359;51.450;7.346;2022-12-18T22:21:35;1.70;99.90
12588;DHT22;6359;51.450;7.346;2022-12-18T22:24:04;1.70;99.90
12588;DHT22;6359;51.450;7.346;2022-12-18T22:26:33;4.70;99.90
12588;DHT22;6359;51.450;7.346;2022-12-18T22:31:45;1.40;99.90
12588;DHT22;6359;51.450;7.346;2022-12-18T22:34:14;1.50;99.90
12588;DHT22;6359;51.450;7.346;2022-12-18T22:36:43;1.60;99.90
12588;DHT22;6359;51.450;7.346;2022-12-18T22:39:13;1.50;99.90
12588;DHT22;6359;51.450;7.346;2022-12-18T22:41:41;1.60;99.90
12588;DHT22;6359;51.450;7.346;2022-12-18T22:46:37;1.70;99.90
12588;DHT22;6359;51.450;7.346;2022-12-18T22:49:05;1.60;99.90
12588;DHT22;6359;51.450;7.346;2022-12-18T22:51:35;1.50;99.90
12588;DHT22;6359;51.450;7.346;2022-12-18T22:54:02;1.80;99.90
12588;DHT22;6359;51.450;7.346;2022-12-18T23:01:26;1.60;99.90
12588;DHT22;6359;51.450;7.346;2022-12-18T23:03:54;1.50;99.90
12588;DHT22;6359;51.450;7.346;2022-12-18T23:06:22;1.60;99.90
12588;DHT22;6359;51.450;7.346;2022-12-18T23:08:53;1.60;99.90
12588;DHT22;6359;51.450;7.346;2022-12-18T23:16:16;1.60;99.90
12588;DHT22;6359;51.450;7.346;2022-12-18T23:18:47;1.60;99.90
12588;DHT22;6359;51.450;7.346;2022-12-18T23:21:19;1.60;99.90
12588;DHT22;6359;51.450;7.346;2022-12-18T23:26:17;1.60;99.90
12588;DHT22;6359;51.450;7.346;2022-12-18T23:31:13;1.70;99.90
12588;DHT22;6359;51.450;7.346;2022-12-18T23:36:08;1.70;99.90
12588;DHT22;6359;51.450;7.346;2022-12-18T23:38:36;1.70;99.90
12588;DHT22;6359;51.450;7.346;2022-12-18T23:41:07;1.80;99.90
12588;DHT22;6359;51.450;7.346;2022-12-18T23:43:36;2.00;99.90
12588;DHT22;6359;51.450;7.346;2022-12-18T23:46:09;1.80;99.90
12588;DHT22;6359;51.450;7.346;2022-12-18T23:48:36;1.60;99.90
12588;DHT22;6359;51.450;7.346;2022-12-18T23:51:05;1.70;99.90
12588;DHT22;6359;51.450;7.346;2022-12-18T23:53:32;1.60;99.90
12588;DHT22;6359;51.450;7.346;2022-12-18T23:56:00;1.70;99.90
